Time;durP1;ratioP1;P1;durP2;ratioP2;P2;SDS_P1;SDS_P2;PMS_P1;PMS_P2;Temp;Humidity;BMP_temperature;BMP_pressure;BME280_temperature;BME280_humidity;BME280_pressure;Samples;Min_cycle;Max_cycle;Signal;HPM_P1;HPM_P2
2021/12/27 07:09:20;;;;;;;14.33;9.60;;;;;;;;;;4901368;29;20217;-88
2021/12/27 07:11:52;;;;;;;15.30;9.97;;;;;;;;;;4900445;29;20224;-86
2021/12/27 07:14:19;;;;;;;12.90;9.17;;;;;;;;;;4904233;29;20203;-86
2021/12/27 07:16:46;;;;;;;13.33;9.57;;;;;;;;;;4903912;29;20721;-85
2021/12/27 07:19:14;;;;;;;12.53;9.27;;;;;;;;;;4904879;29;20233;-85
2021/12/27 07:21:43;;;;;;;12.53;9.60;;;;;;;;;;4904906;29;20229;-85
2021/12/27 07:24:13;;;;;;;14.77;10.53;;;;;;;;;;4919329;29;20234;-87
2021/12/27 07:26:42;;;;;;;14.63;10.27;;;;;;;;;;4918200;29;20245;-86
2021/12/27 07:29:09;;;;;;;14.67;10.63;;;;;;;;;;4916140;29;20206;-86
2021/12/27 07:31:36;;;;;;;14.10;10.70;;;;;;;;;;4919185;29;20213;-85
2021/12/27 07:34:05;;;;;;;15.53;11.37;;;;;;;;;;4922585;29;20206;-85
2021/12/27 07:36:35;;;;;;;14.17;11.00;;;;;;;;;;4922934;29;20237;-86
2021/12/27 07:39:05;;;;;;;15.67;11.60;;;;;;;;;;4919781;29;20288;-85
2021/12/27 07:41:32;;;;;;;16.63;12.30;;;;;;;;;;4921975;29;20261;-86
2021/12/27 07:44:03;;;;;;;17.53;12.20;;;;;;;;;;4922539;29;20210;-86
2021/12/27 07:46:30;;;;;;;15.57;11.77;;;;;;;;;;4922718;29;20233;-85
2021/12/27 07:48:58;;;;;;;17.47;12.23;;;;;;;;;;4922396;29;20564;-84
2021/12/27 07:51:25;;;;;;;16.10;11.83;;;;;;;;;;4921282;29;20261;-88
2021/12/27 07:53:54;;;;;;;16.97;12.50;;;;;;;;;;4921123;29;20209;-85
2021/12/27 07:56:21;;;;;;;17.17;12.30;;;;;;;;;;4920571;29;20272;-85
2021/12/27 07:58:49;;;;;;;16.57;12.67;;;;;;;;;;4921471;29;20265;-85
2021/12/27 08:01:18;;;;;;;16.23;12.00;;;;;;;;;;4922099;29;20221;-85
2021/12/27 08:03:46;;;;;;;16.10;12.67;;;;;;;;;;4923535;29;20236;-85
2021/12/27 08:06:14;;;;;;;16.50;11.93;;;;;;;;;;4923291;29;20273;-87
2021/12/27 08:08:41;;;;;;;16.50;12.03;;;;;;;;;;4923801;29;20233;-85
2021/12/27 08:11:09;;;;;;;18.37;12.27;;;;;;;;;;4923259;29;20268;-86
2021/12/27 08:13:37;;;;;;;15.07;11.13;;;;;;;;;;4922229;29;20244;-85
2021/12/27 08:16:07;;;;;;;14.90;11.40;;;;;;;;;;4921342;29;20268;-84
2021/12/27 08:18:41;;;;;;;15.00;11.90;;;;;;;;;;4922626;29;20229;-85
2021/12/27 08:21:16;;;;;;;16.57;11.33;;;;;;;;;;4922679;29;20294;-85
2021/12/27 08:23:43;;;;;;;15.90;11.40;;;;;;;;;;4923445;29;20209;-85
2021/12/27 08:30:00;;;;;;;19.20;12.40;;;;;;;;;;4921776;29;20202;-85
2021/12/27 08:32:27;;;;;;;17.43;12.47;;;;;;;;;;4908786;29;20297;-85
2021/12/27 08:34:56;;;;;;;17.87;13.47;;;;;;;;;;4921517;29;20210;-86
2021/12/27 08:37:26;;;;;;;18.97;14.33;;;;;;;;;;4922841;29;20376;-85
2021/12/27 08:39:53;;;;;;;21.17;15.87;;;;;;;;;;4922345;29;20273;-88
2021/12/27 08:42:23;;;;;;;20.33;15.37;;;;;;;;;;4922166;29;20233;-83
2021/12/27 08:45:00;;;;;;;21.37;14.90;;;;;;;;;;4923171;29;20214;-84
2021/12/27 08:47:36;;;;;;;17.30;13.80;;;;;;;;;;4922478;29;20345;-85
2021/12/27 08:50:09;;;;;;;17.97;13.13;;;;;;;;;;4922870;29;20240;-85
2021/12/27 08:52:38;;;;;;;17.27;13.43;;;;;;;;;;4919133;29;20213;-85
2021/12/27 08:55:06;;;;;;;18.70;13.57;;;;;;;;;;4920392;29;20216;-85
2021/12/27 08:57:36;;;;;;;16.80;12.40;;;;;;;;;;4920614;29;20230;-84
2021/12/27 09:00:03;;;;;;;16.97;13.30;;;;;;;;;;4933915;29;20212;-88
2021/12/27 09:02:31;;;;;;;16.97;12.40;;;;;;;;;;4939768;29;20193;-90
2021/12/27 09:05:00;;;;;;;16.40;12.37;;;;;;;;;;4941421;29;20194;-89
2021/12/27 09:07:30;;;;;;;13.10;10.83;;;;;;;;;;4941549;29;20230;-90
2021/12/27 09:09:57;;;;;;;13.63;10.70;;;;;;;;;;4941425;29;20194;-89
2021/12/27 09:12:24;;;;;;;11.87;10.40;;;;;;;;;;4933830;29;20225;-89
2021/12/27 09:14:59;;;;;;;12.20;9.67;;;;;;;;;;4941852;29;20197;-90
2021/12/27 09:17:27;;;;;;;11.57;9.20;;;;;;;;;;4941710;29;20218;-90
2021/12/27 09:19:54;;;;;;;12.27;8.07;;;;;;;;;;4941712;29;20222;-89
2021/12/27 09:22:24;;;;;;;10.33;8.00;;;;;;;;;;4941003;29;20208;-89
2021/12/27 09:24:57;;;;;;;10.83;8.10;;;;;;;;;;4941746;29;20186;-89
2021/12/27 09:27:30;;;;;;;11.43;7.27;;;;;;;;;;4941669;29;20229;-90
2021/12/27 09:29:59;;;;;;;11.37;6.73;;;;;;;;;;4941376;29;20197;-89
2021/12/27 09:32:28;;;;;;;10.13;7.03;;;;;;;;;;4941437;29;20197;-90
2021/12/27 09:35:01;;;;;;;8.80;6.43;;;;;;;;;;4942732;28;20226;-89
2021/12/27 09:37:33;;;;;;;9.97;6.97;;;;;;;;;;4951688;28;20209;-91
2021/12/27 09:40:07;;;;;;;8.20;6.70;;;;;;;;;;4946968;28;20182;-87
2021/12/27 09:45:30;;;;;;;10.57;6.83;;;;;;;;;;4917015;29;20210;-87
2021/12/27 09:48:34;;;;;;;;;;;;;;;;;;;;;
2021/12/27 09:54:14;;;;;;;8.23;6.80;;;;;;;;;;4900695;29;20250;-88
2021/12/27 09:56:43;;;;;;;7.97;6.70;;;;;;;;;;4907042;29;20245;-89
2021/12/27 10:02:19;;;;;;;9.53;6.87;;;;;;;;;;4889395;29;20288;-85
2021/12/27 10:04:46;;;;;;;7.13;5.93;;;;;;;;;;4920016;29;20206;-86
2021/12/27 10:07:31;;;;;;;7.90;5.67;;;;;;;;;;4917074;29;20668;-84
2021/12/27 10:10:00;;;;;;;7.37;6.20;;;;;;;;;;4921525;29;20209;-86
2021/12/27 10:12:29;;;;;;;8.90;5.53;;;;;;;;;;4920918;29;20288;-88
2021/12/27 10:14:57;;;;;;;8.57;6.10;;;;;;;;;;4918973;29;20243;-86
2021/12/27 10:17:25;;;;;;;6.53;5.60;;;;;;;;;;4912338;29;20233;-87
2021/12/27 10:19:52;;;;;;;9.53;7.03;;;;;;;;;;4919930;29;20210;-87
2021/12/27 10:22:20;;;;;;;9.37;6.73;;;;;;;;;;4918739;29;20241;-86
2021/12/27 10:24:47;;;;;;;6.40;5.67;;;;;;;;;;4912906;29;20277;-87
2021/12/27 10:27:16;;;;;;;7.47;5.27;;;;;;;;;;4912472;29;20325;-86
2021/12/27 10:29:45;;;;;;;7.03;5.13;;;;;;;;;;4912145;29;20212;-86
2021/12/27 10:32:14;;;;;;;7.03;5.20;;;;;;;;;;4912306;29;20213;-85
2021/12/27 10:34:43;;;;;;;6.30;5.00;;;;;;;;;;4906090;29;20213;-87
2021/12/27 10:37:13;;;;;;;5.13;4.63;;;;;;;;;;4917581;29;20230;-87
2021/12/27 10:39:58;;;;;;;6.43;4.97;;;;;;;;;;4917750;29;20206;-87
2021/12/27 10:42:26;;;;;;;5.30;4.80;;;;;;;;;;4917376;29;20261;-87
2021/12/27 10:44:58;;;;;;;5.70;4.60;;;;;;;;;;4918372;29;20206;-84
2021/12/27 10:47:31;;;;;;;5.70;4.67;;;;;;;;;;4919625;29;20229;-86
2021/12/27 10:50:03;;;;;;;5.20;4.70;;;;;;;;;;4921276;29;20291;-87
2021/12/27 10:52:51;;;;;;;4.63;4.10;;;;;;;;;;4915710;29;20293;-87
2021/12/27 10:55:20;;;;;;;5.33;4.30;;;;;;;;;;4919049;29;20226;-87
2021/12/27 10:57:48;;;;;;;6.00;4.80;;;;;;;;;;4918407;29;20259;-85
2021/12/27 11:00:25;;;;;;;5.57;4.60;;;;;;;;;;4916180;29;20237;-86
2021/12/27 11:02:52;;;;;;;5.50;4.73;;;;;;;;;;4917163;29;20217;-86
2021/12/27 11:05:24;;;;;;;4.60;4.20;;;;;;;;;;5105846;23;20792;-85
2021/12/27 11:07:59;;;;;;;3.90;3.60;;;;;;;;;;4973513;28;20255;-87
2021/12/27 11:10:27;;;;;;;5.33;3.63;;;;;;;;;;4974048;28;20207;-87
2021/12/27 11:12:59;;;;;;;5.00;4.27;;;;;;;;;;4974319;28;20232;-87
2021/12/27 11:15:33;;;;;;;4.90;3.77;;;;;;;;;;4974497;28;20247;-88
2021/12/27 11:18:00;;;;;;;4.80;4.30;;;;;;;;;;4983171;28;20227;-89
2021/12/27 11:20:32;;;;;;;4.23;3.67;;;;;;;;;;4995958;28;20180;-90
2021/12/27 11:23:00;;;;;;;4.40;4.00;;;;;;;;;;4996399;28;20211;-90
2021/12/27 11:25:31;;;;;;;4.57;3.60;;;;;;;;;;4994997;28;20211;-89
2021/12/27 11:31:05;;;;;;;3.40;3.10;;;;;;;;;;4964967;28;20196;-91
2021/12/27 11:40:06;;;;;;;3.20;2.90;;;;;;;;;;4921875;29;20294;-92
2021/12/27 11:42:55;;;;;;;3.27;2.97;;;;;;;;;;4972013;29;20205;-92
2021/12/27 11:51:54;;;;;;;3.73;3.00;;;;;;;;;;4886819;29;20207;-91
2021/12/27 11:54:53;;;;;;;4.13;3.73;;;;;;;;;;4880062;29;20207;-90
2021/12/27 11:57:59;;;;;;;3.63;2.90;;;;;;;;;;4877230;29;20227;-88
2021/12/27 12:00:45;;;;;;;5.10;3.97;;;;;;;;;;4877134;29;20228;-88
2021/12/27 12:03:29;;;;;;;4.67;3.40;;;;;;;;;;4877985;29;20214;-87
2021/12/27 12:06:00;;;;;;;3.73;3.40;;;;;;;;;;4867771;29;20223;-91
2021/12/27 12:08:51;;;;;;;3.47;3.17;;;;;;;;;;4898468;29;20230;-89
2021/12/27 12:14:27;;;;;;;3.47;3.17;;;;;;;;;;4897453;29;20207;-90
2021/12/27 12:16:56;;;;;;;3.53;2.80;;;;;;;;;;4885850;29;20230;-89
2021/12/27 12:19:54;;;;;;;3.30;3.00;;;;;;;;;;4898690;29;20218;-89
2021/12/27 12:22:42;;;;;;;6.40;5.20;;;;;;;;;;4890112;29;20207;-89
2021/12/27 12:28:19;;;;;;;3.80;3.50;;;;;;;;;;4945196;23;20259;-88
2021/12/27 12:34:20;;;;;;;3.60;3.30;;;;;;;;;;4973041;28;20303;-89
2021/12/27 12:40:47;;;;;;;3.30;3.00;;;;;;;;;;4831383;29;20220;-83
2021/12/27 12:43:33;;;;;;;3.60;3.30;;;;;;;;;;4832666;29;20300;-84
2021/12/27 12:46:10;;;;;;;3.60;3.30;;;;;;;;;;4831149;29;20254;-84
2021/12/27 12:48:46;;;;;;;2.97;2.70;;;;;;;;;;4844456;29;20216;-87
2021/12/27 12:51:14;;;;;;;2.93;2.63;;;;;;;;;;4839157;29;20209;-85
2021/12/27 12:54:05;;;;;;;3.33;3.03;;;;;;;;;;4827182;29;20218;-86
2021/12/27 12:56:37;;;;;;;3.17;2.87;;;;;;;;;;4821631;29;20316;-83
2021/12/27 12:59:07;;;;;;;3.27;2.97;;;;;;;;;;4826183;29;20258;-85
2021/12/27 13:01:35;;;;;;;3.30;3.00;;;;;;;;;;4825549;29;20225;-86
2021/12/27 13:04:04;;;;;;;2.90;2.70;;;;;;;;;;4825129;29;20209;-86
2021/12/27 13:06:46;;;;;;;2.50;2.30;;;;;;;;;;4829999;29;20245;-84
2021/12/27 13:46:25;;;;;;;3.10;2.80;;;;;;;;;;4980414;23;20263;-85
2021/12/27 13:48:56;;;;;;;2.47;2.27;;;;;;;;;;4976670;28;20200;-85
2021/12/27 13:51:24;;;;;;;2.90;2.70;;;;;;;;;;4976767;28;20195;-87
2021/12/27 13:53:55;;;;;;;3.30;3.00;;;;;;;;;;4976712;28;20208;-86
2021/12/27 13:56:24;;;;;;;2.90;2.60;;;;;;;;;;4974722;28;20240;-87
2021/12/27 14:01:57;;;;;;;3.67;3.30;;;;;;;;;;4953329;28;20223;-86
2021/12/27 14:04:26;;;;;;;3.83;3.10;;;;;;;;;;4981594;28;20219;-87
2021/12/27 14:06:55;;;;;;;3.30;2.80;;;;;;;;;;4970236;28;20275;-88
2021/12/27 14:09:23;;;;;;;3.70;3.40;;;;;;;;;;4977780;28;20331;-86
2021/12/27 14:12:02;;;;;;;3.53;3.20;;;;;;;;;;4978255;28;20294;-89
2021/12/27 14:14:37;;;;;;;3.23;2.63;;;;;;;;;;4979096;28;20211;-86
2021/12/27 14:17:07;;;;;;;3.30;3.00;;;;;;;;;;4978772;28;20235;-87
2021/12/27 14:19:34;;;;;;;3.47;3.17;;;;;;;;;;4981427;28;20231;-86
2021/12/27 14:22:21;;;;;;;3.03;2.73;;;;;;;;;;4986834;28;20204;-86
2021/12/27 14:24:54;;;;;;;6.67;4.83;;;;;;;;;;4985949;28;20212;-82
2021/12/27 14:27:26;;;;;;;3.50;3.20;;;;;;;;;;4983838;28;20224;-83
2021/12/27 14:30:10;;;;;;;3.63;3.30;;;;;;;;;;4977879;28;20226;-85
2021/12/27 14:32:42;;;;;;;3.40;3.10;;;;;;;;;;4979571;28;20218;-84
2021/12/27 14:35:21;;;;;;;3.20;2.90;;;;;;;;;;4982086;28;20216;-84
2021/12/27 14:37:51;;;;;;;4.33;3.40;;;;;;;;;;4983341;28;20231;-84
2021/12/27 14:40:23;;;;;;;3.27;3.07;;;;;;;;;;4982829;28;20207;-85
2021/12/27 14:42:51;;;;;;;3.80;3.40;;;;;;;;;;4982166;28;20292;-85
2021/12/27 14:45:20;;;;;;;3.50;3.20;;;;;;;;;;4980634;28;20211;-85
2021/12/27 14:47:50;;;;;;;3.77;3.37;;;;;;;;;;4981063;28;20223;-83
2021/12/27 14:50:18;;;;;;;3.10;2.80;;;;;;;;;;4979164;28;20198;-86
2021/12/27 14:52:45;;;;;;;3.77;3.40;;;;;;;;;;4979999;28;20681;-83
2021/12/27 14:55:14;;;;;;;3.90;3.10;;;;;;;;;;4981267;28;20247;-84
2021/12/27 14:57:45;;;;;;;3.50;3.20;;;;;;;;;;4980011;28;20238;-85
2021/12/27 15:00:15;;;;;;;3.50;3.20;;;;;;;;;;4980800;28;20208;-86
2021/12/27 15:02:42;;;;;;;3.70;3.30;;;;;;;;;;4979595;28;20196;-83
2021/12/27 15:05:11;;;;;;;6.57;3.30;;;;;;;;;;4983174;28;20423;-85
2021/12/27 15:07:39;;;;;;;3.60;3.30;;;;;;;;;;4980603;28;20271;-85
2021/12/27 15:10:07;;;;;;;3.40;3.10;;;;;;;;;;4980740;28;20225;-85
2021/12/27 15:12:35;;;;;;;3.57;3.27;;;;;;;;;;4979409;28;20203;-86
2021/12/27 15:15:02;;;;;;;3.77;3.17;;;;;;;;;;4980092;28;20200;-84
2021/12/27 15:17:30;;;;;;;4.43;3.37;;;;;;;;;;4975872;28;20230;-85
2021/12/27 15:20:00;;;;;;;3.97;3.67;;;;;;;;;;4980468;28;20200;-87
2021/12/27 15:22:29;;;;;;;3.60;3.30;;;;;;;;;;4973204;28;20212;-84
2021/12/27 15:24:57;;;;;;;3.67;3.37;;;;;;;;;;4973194;28;20200;-86
2021/12/27 15:27:24;;;;;;;3.57;3.27;;;;;;;;;;4976608;28;20247;-85
2021/12/27 15:29:54;;;;;;;3.80;3.40;;;;;;;;;;4976255;28;20196;-86
2021/12/27 15:32:24;;;;;;;3.97;3.67;;;;;;;;;;4971754;28;20234;-85
2021/12/27 15:34:51;;;;;;;3.40;3.10;;;;;;;;;;4979430;28;20207;-85
2021/12/27 15:37:19;;;;;;;3.90;3.23;;;;;;;;;;4971709;28;20239;-85
2021/12/27 15:39:47;;;;;;;3.30;3.00;;;;;;;;;;4973672;28;20212;-86
2021/12/27 15:42:15;;;;;;;4.10;3.70;;;;;;;;;;4971152;28;20215;-85
2021/12/27 15:44:42;;;;;;;4.47;3.63;;;;;;;;;;4971031;28;20211;-85
2021/12/27 15:47:10;;;;;;;3.87;3.57;;;;;;;;;;4977729;28;20354;-85
2021/12/27 15:49:37;;;;;;;5.17;3.70;;;;;;;;;;4977819;28;20308;-86
2021/12/27 15:52:05;;;;;;;4.07;3.73;;;;;;;;;;4973902;28;20204;-85
2021/12/27 15:54:33;;;;;;;4.13;3.73;;;;;;;;;;4981738;28;20226;-86
2021/12/27 15:57:26;;;;;;;4.07;3.67;;;;;;;;;;5008258;23;20242;-85
2021/12/27 16:42:09;;;;;;;4.93;4.53;;;;;;;;;;4962759;29;20208;-86
2021/12/27 16:44:41;;;;;;;5.93;5.17;;;;;;;;;;4963029;29;20276;-87
2021/12/27 16:53:37;;;;;;;;;;;;;;;;;;;;;
2021/12/27 16:56:17;;;;;;;4.60;4.10;;;;;;;;;;4954944;28;20208;-86
2021/12/27 16:58:45;;;;;;;4.70;4.30;;;;;;;;;;4959437;28;20847;-86
2021/12/27 17:04:57;;;;;;;4.90;4.40;;;;;;;;;;4903987;29;20210;-86
2021/12/27 18:19:01;;;;;;;1.73;1.63;;;;;;;;;;5174523;23;20241;-90
2021/12/27 18:21:45;;;;;;;1.80;1.70;;;;;;;;;;4994277;28;20218;-86
2021/12/27 18:24:19;;;;;;;1.60;1.50;;;;;;;;;;5001525;28;20215;-86
2021/12/27 18:27:08;;;;;;;1.73;1.63;;;;;;;;;;4996329;28;20238;-87
2021/12/27 18:30:08;;;;;;;3.13;1.70;;;;;;;;;;4992061;28;20207;-87
2021/12/27 18:32:39;;;;;;;1.63;1.53;;;;;;;;;;4992362;28;20218;-87
2021/12/27 18:35:20;;;;;;;;;;;;;;;;;;;;;
2021/12/27 18:38:05;;;;;;;1.40;1.30;;;;;;;;;;4985816;28;20219;-87
2021/12/27 18:40:43;;;;;;;1.87;1.60;;;;;;;;;;4993349;28;20209;-85
2021/12/27 18:49:09;;;;;;;2.13;1.60;;;;;;;;;;4978007;28;20218;-87
2021/12/27 18:51:36;;;;;;;1.70;1.60;;;;;;;;;;4992938;28;20221;-89
2021/12/27 18:54:05;;;;;;;2.03;1.83;;;;;;;;;;4996560;28;20223;-87
2021/12/27 18:56:37;;;;;;;1.70;1.60;;;;;;;;;;4991198;28;20225;-87
2021/12/27 18:59:16;;;;;;;1.73;1.60;;;;;;;;;;4986511;28;20220;-90
2021/12/27 19:01:50;;;;;;;1.67;1.57;;;;;;;;;;4993700;28;20334;-87
2021/12/27 19:04:23;;;;;;;1.40;1.30;;;;;;;;;;4996597;28;20225;-87
2021/12/27 19:12:53;;;;;;;1.83;1.73;;;;;;;;;;4976531;28;20195;-88
2021/12/27 19:15:42;;;;;;;1.60;1.50;;;;;;;;;;4995132;28;20261;-87
2021/12/27 19:18:14;;;;;;;2.10;1.90;;;;;;;;;;4990662;28;20318;-87
2021/12/27 19:20:51;;;;;;;1.83;1.73;;;;;;;;;;4994965;28;20211;-85
2021/12/27 19:32:15;;;;;;;2.13;1.93;;;;;;;;;;4990994;28;20186;-86
2021/12/27 19:38:19;;;;;;;1.60;1.50;;;;;;;;;;4917357;29;20250;-89
2021/12/27 19:47:04;;;;;;;1.47;1.37;;;;;;;;;;4934123;29;20217;-89
2021/12/27 19:49:56;;;;;;;1.60;1.50;;;;;;;;;;4936730;29;20344;-88
2021/12/27 19:52:45;;;;;;;1.50;1.40;;;;;;;;;;4931511;29;20209;-89
2021/12/27 20:01:41;;;;;;;;;;;;;;;;;;;;;
2021/12/27 20:04:20;;;;;;;1.70;1.60;;;;;;;;;;4899794;29;20274;-88
2021/12/27 20:07:04;;;;;;;2.40;1.97;;;;;;;;;;4913567;29;20301;-89
2021/12/27 20:10:06;;;;;;;1.57;1.43;;;;;;;;;;4944491;29;20220;-89
2021/12/27 20:13:08;;;;;;;1.50;1.40;;;;;;;;;;4927592;29;20259;-89
2021/12/27 20:19:25;;;;;;;1.40;1.30;;;;;;;;;;5135052;23;20223;-88
2021/12/27 20:22:21;;;;;;;2.20;2.00;;;;;;;;;;4981066;28;20207;-90
2021/12/27 20:25:02;;;;;;;1.60;1.50;;;;;;;;;;4979112;28;20212;-89
2021/12/27 20:27:37;;;;;;;1.50;1.40;;;;;;;;;;4983525;28;20228;-90
2021/12/27 20:35:54;;;;;;;1.50;1.40;;;;;;;;;;4967756;28;20208;-87
2021/12/27 20:38:25;;;;;;;1.80;1.50;;;;;;;;;;4971357;28;20224;-88
2021/12/27 20:40:55;;;;;;;1.20;1.20;;;;;;;;;;4978030;28;20200;-87
2021/12/27 20:43:26;;;;;;;1.40;1.30;;;;;;;;;;4975020;28;20204;-87
2021/12/27 20:46:05;;;;;;;1.63;1.37;;;;;;;;;;4974225;28;20232;-87
2021/12/27 20:48:53;;;;;;;1.60;1.40;;;;;;;;;;4975466;28;20225;-87
2021/12/27 20:51:28;;;;;;;1.53;1.30;;;;;;;;;;4973821;28;20208;-87
2021/12/27 20:57:19;;;;;;;1.30;1.20;;;;;;;;;;4975962;28;20212;-87
2021/12/27 21:00:14;;;;;;;1.60;1.30;;;;;;;;;;4977256;28;20274;-89
2021/12/27 21:02:58;;;;;;;1.30;1.20;;;;;;;;;;4973523;28;20203;-89
2021/12/27 21:06:07;;;;;;;1.70;1.60;;;;;;;;;;4973586;28;20230;-90
2021/12/27 21:08:39;;;;;;;1.67;1.37;;;;;;;;;;4974010;28;20219;-89
2021/12/27 21:11:08;;;;;;;1.53;1.40;;;;;;;;;;4975337;28;20227;-89
2021/12/27 21:13:41;;;;;;;1.90;1.60;;;;;;;;;;4975450;28;20505;-89
2021/12/27 21:16:14;;;;;;;1.40;1.30;;;;;;;;;;4974224;28;20214;-89
2021/12/27 21:18:50;;;;;;;1.50;1.40;;;;;;;;;;4973905;28;20238;-89
2021/12/27 21:26:44;;;;;;;1.53;1.43;;;;;;;;;;4962274;28;20204;-89
2021/12/27 21:29:30;;;;;;;1.80;1.70;;;;;;;;;;4977155;28;20195;-89
2021/12/27 21:32:06;;;;;;;1.70;1.60;;;;;;;;;;4975169;28;20275;-88
2021/12/27 21:34:38;;;;;;;1.70;1.60;;;;;;;;;;4974823;28;20294;-89
2021/12/27 21:39:52;;;;;;;1.93;1.70;;;;;;;;;;4967455;28;20219;-89
2021/12/27 21:48:10;;;;;;;1.73;1.63;;;;;;;;;;4972974;28;20601;-89
2021/12/27 21:50:39;;;;;;;1.70;1.60;;;;;;;;;;4975041;28;20214;-89
2021/12/27 21:53:07;;;;;;;1.80;1.70;;;;;;;;;;4974696;28;20200;-89
2021/12/27 21:55:36;;;;;;;2.80;2.00;;;;;;;;;;4974794;28;20211;-89
